Terminal Aerodrome Forecast
Issued by NWS

Home | Current Version | Previous Version | Text Only | Print | Product List | Glossary On
Versions: 1 2 3 4 5 6 7 8 9 10 11 12 13 14 15 16 17 18 19 20 21 22 23 24 25 26 27
482
FTUS43 KGRB 160540 AAA
TAFAUW
TAF AMD
KAUW 160540Z 1606/1706 09005KT 3SM -SN SCT010 BKN015
      TEMPO 1606/1608 1SM -SN BKN009
     FM160800 04005KT 2SM -SN OVC012
      TEMPO 1608/1612 1 1/2SM -SN BKN008
     FM161400 09007KT P6SM -SN SCT015 BKN025
     FM162000 09008KT P6SM OVC015=

USA.gov is the U.S. government's official web portal to all federal, state and local government web resources and services.